Time;durP1;ratioP1;P1;durP2;ratioP2;P2;SDS_P1;SDS_P2;PMS_P1;PMS_P2;Temp;Humidity;BMP_temperature;BMP_pressure;BME280_temperature;BME280_humidity;BME280_pressure;Samples;Min_cycle;Max_cycle;Signal;HPM_P1;HPM_P2
2023/06/20 00:01:16;;;;;;;0.10;0.10;;;;;;;22.56;54.67;101303.25;5113510;28;20042;-80
2023/06/20 00:03:43;;;;;;;0.10;0.10;;;;;;;22.51;54.26;101300.81;5104862;28;20023;-80
2023/06/20 00:06:09;;;;;;;0.00;0.00;;;;;;;22.54;54.20;101306.03;5112440;28;20057;-79
2023/06/20 00:08:35;;;;;;;0.03;0.03;;;;;;;22.55;54.33;101305.06;5112280;28;20098;-80
2023/06/20 00:11:01;;;;;;;0.10;0.10;;;;;;;22.56;55.24;101308.66;5112727;28;20048;-79
2023/06/20 00:13:27;;;;;;;0.10;0.10;;;;;;;22.56;55.12;101300.53;5113447;28;20024;-79
2023/06/20 00:15:57;;;;;;;4.38;0.95;;;;;;;22.58;55.24;101304.88;5113520;28;20028;-80
2023/06/20 00:18:24;;;;;;;0.25;0.25;;;;;;;22.55;54.94;101299.66;5112256;28;20088;-79
2023/06/20 00:20:53;;;;;;;0.10;0.10;;;;;;;22.59;55.09;101292.22;5113237;28;20024;-78
2023/06/20 00:23:21;;;;;;;0.20;0.20;;;;;;;22.59;55.86;101295.81;5114976;28;20030;-79
2023/06/20 00:25:48;;;;;;;0.00;0.00;;;;;;;22.56;56.19;101297.84;5102883;28;20134;-80
2023/06/20 00:28:17;;;;;;;0.20;0.20;;;;;;;22.57;55.80;101296.88;5109939;28;20028;-78
2023/06/20 00:30:43;;;;;;;0.10;0.10;;;;;;;22.59;55.78;101293.13;5111825;28;20012;-79
2023/06/20 00:33:10;;;;;;;0.10;0.10;;;;;;;22.57;55.03;101291.47;5112693;28;20104;-79
2023/06/20 00:35:37;;;;;;;0.20;0.20;;;;;;;22.57;55.38;101297.72;5111354;28;20039;-78
2023/06/20 00:38:04;;;;;;;0.00;0.00;;;;;;;22.56;55.71;101292.44;5110107;28;20089;-79
2023/06/20 00:40:30;;;;;;;0.28;0.28;;;;;;;22.57;56.56;101289.63;5109432;28;20028;-78
2023/06/20 00:42:56;;;;;;;0.10;0.10;;;;;;;22.57;57.17;101297.72;5107325;28;20040;-79
2023/06/20 00:45:33;;;;;;;0.28;0.28;;;;;;;22.61;55.90;101295.72;5099876;28;20019;-79
2023/06/20 00:48:01;;;;;;;0.10;0.10;;;;;;;22.56;56.11;101293.28;5092059;28;20090;-79
2023/06/20 00:50:29;;;;;;;0.03;0.03;;;;;;;22.54;56.85;101292.53;5100509;28;20016;-79
2023/06/20 00:52:59;;;;;;;0.00;0.00;;;;;;;22.55;56.80;101291.56;5099320;28;20031;-80
2023/06/20 00:55:27;;;;;;;0.10;0.10;;;;;;;22.53;57.27;101287.22;5097141;28;20024;-80
2023/06/20 00:57:57;;;;;;;0.10;0.10;;;;;;;22.52;55.73;101286.34;5103530;28;20442;-78
2023/06/20 01:00:24;;;;;;;0.57;0.57;;;;;;;22.50;55.90;101282.03;5101902;28;20012;-80
2023/06/20 01:02:53;;;;;;;0.52;0.52;;;;;;;22.56;56.42;101277.09;5101649;28;20028;-79
2023/06/20 01:05:26;;;;;;;0.13;0.13;;;;;;;22.54;55.85;101268.25;5099243;28;20020;-78
2023/06/20 01:08:04;;;;;;;0.00;0.00;;;;;;;22.54;56.97;101272.75;5097249;28;20020;-78
2023/06/20 01:13:32;;;;;;;0.00;0.00;;;;;;;22.56;56.58;101273.53;5076103;28;20757;-81
2023/06/20 01:16:31;;;;;;;0.43;0.43;;;;;;;22.59;56.18;101260.72;5065353;28;20040;-80
2023/06/20 01:21:46;;;;;;;0.00;0.00;;;;;;;22.55;55.32;101264.56;5073601;27;20422;-78
2023/06/20 01:24:27;;;;;;;0.00;0.00;;;;;;;22.55;55.16;101263.69;5074362;27;20051;-78
2023/06/20 01:32:32;;;;;;;0.90;0.45;;;;;;;22.54;54.56;101262.84;5137154;27;20395;-83
2023/06/20 01:35:07;;;;;;;0.20;0.20;;;;;;;22.54;54.28;101268.25;5129267;27;20043;-83
2023/06/20 01:37:37;;;;;;;0.35;0.35;;;;;;;22.56;54.09;101260.88;5123247;27;20024;-82
2023/06/20 01:40:06;;;;;;;0.25;0.25;;;;;;;22.55;53.95;101261.84;5128890;27;20028;-83
2023/06/20 01:42:34;;;;;;;0.00;0.00;;;;;;;22.60;53.65;101253.47;5120903;28;20394;-83
2023/06/20 01:45:04;;;;;;;0.10;0.10;;;;;;;22.61;53.59;101253.34;5115356;28;20028;-82
2023/06/20 01:47:36;;;;;;;0.63;0.63;;;;;;;22.62;53.75;101255.09;5109487;28;20028;-83
2023/06/20 01:50:05;;;;;;;0.05;0.05;;;;;;;22.65;53.53;101248.63;5114319;28;20086;-83
2023/06/20 01:52:33;;;;;;;0.20;0.20;;;;;;;22.62;53.43;101249.69;5114122;28;20046;-83
2023/06/20 01:55:04;;;;;;;0.20;0.20;;;;;;;22.66;53.60;101244.09;5113802;28;20451;-82
2023/06/20 01:57:31;;;;;;;0.55;0.55;;;;;;;22.55;53.89;101242.09;5113827;28;20023;-81
2023/06/20 01:59:59;;;;;;;1.52;1.23;;;;;;;22.52;54.31;101248.56;5112911;28;20379;-82
2023/06/20 02:02:28;;;;;;;0.00;0.00;;;;;;;22.55;54.07;101245.66;5107442;27;20057;-83
2023/06/20 02:04:58;;;;;;;0.10;0.10;;;;;;;22.64;53.69;101241.47;5111888;28;20056;-81
2023/06/20 02:07:26;;;;;;;0.00;0.00;;;;;;;22.60;54.09;101243.53;5113246;28;20032;-83
2023/06/20 02:09:53;;;;;;;0.63;0.63;;;;;;;22.58;54.15;101231.97;5112397;28;20081;-83
2023/06/20 02:12:20;;;;;;;0.00;0.00;;;;;;;22.58;54.21;101242.75;5113110;28;20019;-83
2023/06/20 02:14:51;;;;;;;1.08;0.85;;;;;;;22.55;54.17;101232.16;5112548;28;20036;-82
2023/06/20 02:17:19;;;;;;;0.05;0.05;;;;;;;22.56;54.40;101231.19;5111316;28;20042;-83
2023/06/20 02:19:45;;;;;;;0.03;0.03;;;;;;;22.57;54.04;101226.66;5112436;28;20023;-83
2023/06/20 02:22:14;;;;;;;0.40;0.40;;;;;;;22.58;54.25;101226.56;5113524;28;20024;-83
2023/06/20 02:24:43;;;;;;;0.00;0.00;;;;;;;22.57;54.30;101230.22;5112952;28;20028;-82
2023/06/20 02:27:15;;;;;;;0.20;0.20;;;;;;;22.58;54.20;101225.69;5111202;28;20040;-83
2023/06/20 02:29:43;;;;;;;0.10;0.10;;;;;;;22.58;54.04;101225.69;5115461;28;20028;-82
2023/06/20 02:32:13;;;;;;;0.00;0.00;;;;;;;22.56;54.61;101228.47;5107537;28;20051;-83
2023/06/20 02:34:43;;;;;;;0.13;0.13;;;;;;;22.54;54.54;101230.44;5110262;28;20030;-83
2023/06/20 02:37:11;;;;;;;0.00;0.00;;;;;;;22.55;54.16;101217.78;5111359;28;20032;-82
2023/06/20 02:39:37;;;;;;;0.32;0.32;;;;;;;22.56;54.32;101223.09;5111630;28;20408;-82
2023/06/20 02:42:04;;;;;;;0.08;0.08;;;;;;;22.56;54.29;101212.28;5108382;28;20020;-83
2023/06/20 02:44:30;;;;;;;0.30;0.30;;;;;;;22.55;54.61;101225.88;5098053;28;20382;-83
2023/06/20 02:47:19;;;;;;;0.68;0.68;;;;;;;22.56;54.50;101216.81;5095282;28;20110;-83
2023/06/20 02:53:08;;;;;;;0.00;0.00;;;;;;;22.60;54.55;101203.03;5170521;27;20341;-79
2023/06/20 02:55:44;;;;;;;0.00;0.00;;;;;;;22.53;54.81;101201.69;5165736;27;20037;-80
2023/06/20 02:58:13;;;;;;;0.03;0.03;;;;;;;22.53;54.60;101196.28;5164398;27;20026;-79
2023/06/20 03:00:48;;;;;;;0.00;0.00;;;;;;;22.53;54.76;101199.00;5156253;27;20019;-79
2023/06/20 03:03:21;;;;;;;0.00;0.00;;;;;;;22.51;55.13;101197.38;5154702;27;20083;-78
2023/06/20 03:05:48;;;;;;;0.17;0.17;;;;;;;22.50;54.59;101188.38;5142910;27;20046;-80
2023/06/20 03:08:20;;;;;;;0.10;0.10;;;;;;;22.49;54.80;101199.28;5145639;27;20024;-79
2023/06/20 03:10:49;;;;;;;0.55;0.55;;;;;;;22.47;54.76;101191.28;5144999;27;20023;-79
2023/06/20 03:13:15;;;;;;;0.00;0.00;;;;;;;22.47;54.86;101191.28;5155293;27;20047;-79
2023/06/20 03:15:42;;;;;;;0.50;0.50;;;;;;;22.44;54.95;101186.97;5140448;27;20438;-79
2023/06/20 03:18:08;;;;;;;0.40;0.40;;;;;;;22.44;54.75;101189.66;5149767;27;20019;-79
2023/06/20 03:20:34;;;;;;;0.00;0.00;;;;;;;22.46;54.26;101189.56;5143368;27;20055;-80
2023/06/20 03:23:38;;;;;;;0.08;0.08;;;;;;;22.50;54.58;101193.78;5157336;27;20042;-79
2023/06/20 03:26:06;;;;;;;0.10;0.10;;;;;;;22.37;54.72;101199.13;5139712;27;20019;-78
2023/06/20 03:28:32;;;;;;;0.10;0.10;;;;;;;22.38;55.02;101197.28;5152642;27;20043;-79
2023/06/20 03:30:58;;;;;;;0.10;0.10;;;;;;;22.40;54.45;101206.16;5139343;27;20038;-79
2023/06/20 03:33:24;;;;;;;0.00;0.00;;;;;;;22.37;55.05;101207.22;5146370;27;20023;-78
2023/06/20 03:35:50;;;;;;;0.10;0.10;;;;;;;22.37;55.09;101199.13;5150333;27;20031;-79
2023/06/20 03:38:17;;;;;;;0.43;0.43;;;;;;;22.37;55.49;101192.78;5156609;27;20057;-78
2023/06/20 03:40:43;;;;;;;0.43;0.20;;;;;;;22.38;55.37;101190.06;5143394;27;20076;-78
2023/06/20 03:43:09;;;;;;;0.10;0.10;;;;;;;22.38;55.38;101197.28;5144855;27;20047;-78
2023/06/20 03:45:35;;;;;;;0.03;0.03;;;;;;;22.36;55.18;101188.38;5151243;27;20037;-80
2023/06/20 03:48:01;;;;;;;0.10;0.10;;;;;;;22.32;55.08;101189.53;5144276;27;20083;-78
2023/06/20 03:50:27;;;;;;;0.10;0.10;;;;;;;22.31;54.99;101196.78;5145532;27;20030;-79
2023/06/20 03:52:53;;;;;;;0.10;0.10;;;;;;;22.32;55.20;101197.63;5155368;27;20030;-79
2023/06/20 03:55:20;;;;;;;0.10;0.10;;;;;;;22.33;55.35;101204.75;5155317;27;20019;-78
2023/06/20 03:57:46;;;;;;;0.40;0.40;;;;;;;22.34;55.26;101201.97;5144047;27;20049;-79
2023/06/20 04:00:12;;;;;;;1.35;0.68;;;;;;;22.34;55.62;101195.72;5139363;27;20035;-79
2023/06/20 04:02:41;;;;;;;0.10;0.10;;;;;;;22.34;55.26;101201.09;5150235;27;20084;-78
2023/06/20 04:05:08;;;;;;;0.00;0.00;;;;;;;22.35;55.62;101210.94;5144992;27;20026;-78
2023/06/20 04:07:35;;;;;;;0.10;0.10;;;;;;;22.35;55.87;101216.34;5133527;27;20023;-78
2023/06/20 04:10:01;;;;;;;1.25;0.45;;;;;;;22.37;55.29;101207.22;5144320;27;20058;-77
2023/06/20 04:12:27;;;;;;;0.30;0.30;;;;;;;22.38;55.95;101203.56;5129912;27;20105;-77
2023/06/20 04:14:53;;;;;;;0.10;0.10;;;;;;;22.39;55.69;101199.91;5132402;27;20035;-77
2023/06/20 04:17:20;;;;;;;0.20;0.20;;;;;;;22.41;55.14;101197.09;5149477;27;20194;-77
2023/06/20 04:19:46;;;;;;;0.15;0.10;;;;;;;22.39;55.79;101199.00;5137094;27;20035;-78
2023/06/20 04:22:12;;;;;;;0.00;0.00;;;;;;;22.42;55.51;101193.44;5131399;27;20024;-78
2023/06/20 04:24:39;;;;;;;0.17;0.17;;;;;;;22.41;55.29;101199.78;5130660;27;20031;-78
2023/06/20 04:27:05;;;;;;;0.00;0.00;;;;;;;22.40;55.64;101198.03;5129535;27;20215;-78
2023/06/20 04:29:31;;;;;;;0.32;0.30;;;;;;;22.39;55.97;101199.00;5132402;27;20027;-78
2023/06/20 04:31:57;;;;;;;0.38;0.38;;;;;;;22.43;55.66;101197.84;5125843;27;20024;-77
2023/06/20 04:34:24;;;;;;;0.10;0.10;;;;;;;22.42;55.54;101194.28;5127120;27;20024;-78
2023/06/20 04:36:51;;;;;;;0.10;0.10;;;;;;;22.42;55.51;101196.13;5129865;27;20038;-78
2023/06/20 04:39:17;;;;;;;0.10;0.10;;;;;;;22.44;55.67;101197.75;5134210;27;20377;-77
2023/06/20 04:41:44;;;;;;;0.00;0.00;;;;;;;22.46;55.48;101194.94;5133278;27;20174;-78
2023/06/20 04:44:10;;;;;;;0.08;0.08;;;;;;;22.48;55.38;101187.63;5136385;27;20012;-78
2023/06/20 04:46:36;;;;;;;0.28;0.28;;;;;;;22.52;55.07;101183.75;5131024;27;20043;-77
2023/06/20 04:49:02;;;;;;;2.50;0.50;;;;;;;22.59;55.61;101177.00;5128632;27;20024;-78
2023/06/20 04:51:28;;;;;;;0.00;0.00;;;;;;;22.66;55.75;101177.44;5133385;27;20035;-78
2023/06/20 04:53:54;;;;;;;0.00;0.00;;;;;;;22.70;56.23;101178.09;5132664;27;20401;-78
2023/06/20 04:56:22;;;;;;;0.20;0.20;;;;;;;22.77;55.27;101180.31;5125768;27;20393;-77
2023/06/20 04:58:48;;;;;;;0.10;0.10;;;;;;;22.82;55.42;101176.41;5119584;27;20074;-78
2023/06/20 05:01:14;;;;;;;0.10;0.10;;;;;;;22.84;55.48;101177.19;5132383;27;20032;-79
2023/06/20 05:03:43;;;;;;;0.35;0.35;;;;;;;22.91;54.89;101187.47;5128359;27;20023;-78
2023/06/20 05:06:17;;;;;;;0.00;0.00;;;;;;;22.94;55.51;101181.00;5119395;27;20087;-78
2023/06/20 05:08:44;;;;;;;0.10;0.10;;;;;;;23.04;55.03;101181.25;5127061;27;20024;-78
2023/06/20 05:11:11;;;;;;;0.10;0.10;;;;;;;23.09;55.23;101176.41;5131925;27;20028;-78
2023/06/20 05:13:37;;;;;;;0.20;0.20;;;;;;;23.15;54.80;101170.56;5126672;27;20134;-78
2023/06/20 05:16:04;;;;;;;0.35;0.35;;;;;;;23.20;54.92;101173.91;5121020;27;20053;-78
2023/06/20 05:18:30;;;;;;;0.10;0.10;;;;;;;23.25;54.89;101171.75;5133471;27;20030;-78
2023/06/20 05:20:56;;;;;;;0.10;0.10;;;;;;;23.34;54.30;101174.75;5132701;27;20018;-78
2023/06/20 05:23:26;;;;;;;0.30;0.30;;;;;;;23.40;54.66;101166.22;5129000;27;20180;-78
2023/06/20 05:25:52;;;;;;;0.65;0.65;;;;;;;23.44;54.87;101170.47;5135270;27;20035;-78
2023/06/20 05:28:19;;;;;;;0.10;0.10;;;;;;;23.49;54.66;101173.72;5130928;27;20047;-78
2023/06/20 05:30:45;;;;;;;0.10;0.10;;;;;;;23.52;55.20;101162.66;5121499;27;20031;-85
2023/06/20 05:33:11;;;;;;;0.10;0.10;;;;;;;23.56;54.93;101175.03;5122973;27;20015;-77
2023/06/20 05:35:37;;;;;;;0.00;0.00;;;;;;;23.61;54.12;101165.72;5130912;27;20119;-78
2023/06/20 05:38:03;;;;;;;0.10;0.10;;;;;;;23.67;54.22;101173.41;5136283;27;20156;-77
2023/06/20 05:40:30;;;;;;;0.10;0.10;;;;;;;23.70;53.83;101165.06;5119600;27;20075;-78
2023/06/20 05:42:56;;;;;;;3.42;1.33;;;;;;;23.75;54.04;101162.88;5127849;27;20035;-78
2023/06/20 05:45:22;;;;;;;0.50;0.50;;;;;;;23.81;53.87;101145.38;5134220;27;20031;-79
2023/06/20 05:47:48;;;;;;;0.20;0.20;;;;;;;23.88;54.00;101147.50;5119336;27;20114;-80
2023/06/20 05:50:14;;;;;;;2.63;0.52;;;;;;;23.96;54.22;101148.84;5128793;27;20023;-78
2023/06/20 05:52:42;;;;;;;0.40;0.40;;;;;;;24.03;54.05;101155.56;5121677;27;20050;-79
2023/06/20 05:55:08;;;;;;;0.52;0.52;;;;;;;24.05;54.21;101164.41;5121805;27;20048;-79
2023/06/20 05:57:34;;;;;;;0.10;0.10;;;;;;;24.08;53.80;101164.19;5118341;27;20032;-77
2023/06/20 06:00:00;;;;;;;0.20;0.20;;;;;;;24.14;53.63;101152.94;5116638;27;20039;-78
2023/06/20 06:02:26;;;;;;;0.65;0.65;;;;;;;24.21;54.01;101148.81;5114421;28;20032;-79
2023/06/20 06:04:52;;;;;;;0.08;0.08;;;;;;;24.27;53.56;101146.63;5121838;27;20043;-80
2023/06/20 06:07:18;;;;;;;0.30;0.30;;;;;;;24.28;53.82;101151.06;5120907;27;20032;-80
2023/06/20 06:09:47;;;;;;;0.10;0.10;;;;;;;24.33;53.24;101157.84;5118088;27;20034;-78
2023/06/20 06:12:13;;;;;;;0.03;0.03;;;;;;;24.38;53.35;101171.06;5120753;27;20056;-79
2023/06/20 06:14:40;;;;;;;0.55;0.55;;;;;;;24.46;53.06;101165.09;5121635;27;20015;-79
2023/06/20 06:17:06;;;;;;;0.00;0.00;;;;;;;24.53;53.04;101169.91;5119815;27;20102;-78
2023/06/20 06:19:32;;;;;;;0.00;0.00;;;;;;;24.58;52.81;101169.59;5122489;27;20035;-79
2023/06/20 06:21:58;;;;;;;1.55;1.00;;;;;;;24.67;52.25;101176.19;5119607;27;20038;-80
2023/06/20 06:24:24;;;;;;;0.20;0.20;;;;;;;24.71;52.33;101174.97;5118039;27;20034;-80
2023/06/20 06:26:50;;;;;;;0.30;0.30;;;;;;;24.77;51.90;101182.66;5111162;27;20396;-77
2023/06/20 06:29:18;;;;;;;1.40;0.30;;;;;;;24.86;51.31;101171.13;5112416;28;20035;-77
2023/06/20 06:31:44;;;;;;;0.52;0.52;;;;;;;24.93;51.54;101165.25;5130816;27;20035;-77
2023/06/20 06:34:10;;;;;;;0.20;0.20;;;;;;;24.96;50.80;101170.44;5133622;27;20019;-77
2023/06/20 06:36:36;;;;;;;0.30;0.30;;;;;;;25.06;51.17;101171.47;5111953;27;20028;-77
2023/06/20 06:39:03;;;;;;;0.30;0.30;;;;;;;25.12;51.26;101160.16;5109564;28;20516;-78
2023/06/20 06:41:29;;;;;;;0.20;0.20;;;;;;;25.18;51.03;101156.97;5113431;28;20386;-78
2023/06/20 06:43:55;;;;;;;0.20;0.20;;;;;;;25.27;51.23;101159.94;5127724;27;20024;-76
2023/06/20 06:46:21;;;;;;;0.73;0.55;;;;;;;25.35;50.88;101154.81;5111302;28;20116;-78
2023/06/20 06:48:48;;;;;;;0.77;0.77;;;;;;;25.37;50.09;101155.56;5125018;27;20035;-78
2023/06/20 06:51:15;;;;;;;0.15;0.15;;;;;;;25.40;50.28;101147.19;5135355;27;20024;-77
2023/06/20 06:53:41;;;;;;;0.10;0.10;;;;;;;25.38;50.99;101142.88;5123305;28;20026;-78
2023/06/20 06:56:07;;;;;;;1.02;0.80;;;;;;;25.35;50.28;101144.81;5120068;28;20031;-78
2023/06/20 06:58:33;;;;;;;0.20;0.20;;;;;;;25.38;50.64;101142.88;5121552;28;20478;-78
2023/06/20 07:00:59;;;;;;;0.10;0.10;;;;;;;25.41;50.90;101143.50;5122551;28;20415;-78
2023/06/20 07:03:25;;;;;;;0.43;0.43;;;;;;;25.46;50.91;101133.16;5116661;28;20036;-78
2023/06/20 07:05:51;;;;;;;0.10;0.10;;;;;;;25.45;51.60;101128.72;5121714;28;20023;-78
2023/06/20 07:08:17;;;;;;;0.20;0.20;;;;;;;25.49;50.97;101124.75;5120787;28;20038;-78
2023/06/20 07:10:44;;;;;;;0.10;0.10;;;;;;;25.52;50.73;101115.50;5116985;28;20062;-78
2023/06/20 07:13:10;;;;;;;0.20;0.20;;;;;;;25.56;50.85;101116.13;5122566;28;20083;-78
2023/06/20 07:15:36;;;;;;;1.67;0.82;;;;;;;25.62;51.04;101113.81;5121424;28;20050;-78
2023/06/20 07:18:02;;;;;;;0.20;0.20;;;;;;;25.66;51.77;101115.28;5117887;28;20034;-78
2023/06/20 07:20:28;;;;;;;0.57;0.30;;;;;;;25.75;51.58;101105.56;5122477;28;20032;-78
2023/06/20 07:22:54;;;;;;;0.25;0.25;;;;;;;25.83;50.94;101111.22;5125984;28;20106;-78
2023/06/20 07:25:20;;;;;;;3.85;0.68;;;;;;;25.84;50.79;101118.41;5113874;28;20032;-78
2023/06/20 07:27:46;;;;;;;0.77;0.77;;;;;;;25.84;50.56;101117.50;5120000;28;20110;-78
2023/06/20 07:30:13;;;;;;;0.68;0.68;;;;;;;25.88;50.39;101120.84;5120603;28;20024;-78
2023/06/20 07:32:39;;;;;;;1.98;0.63;;;;;;;25.90;49.86;101118.88;5123679;28;20073;-77
2023/06/20 07:35:05;;;;;;;1.58;1.50;;;;;;;25.90;49.81;101117.03;5132832;28;20091;-78
2023/06/20 07:37:31;;;;;;;0.32;0.32;;;;;;;25.94;49.77;101106.78;5126483;28;20023;-77
2023/06/20 07:39:57;;;;;;;0.08;0.08;;;;;;;25.99;49.85;101104.56;5121100;27;20066;-77
2023/06/20 07:42:23;;;;;;;0.32;0.32;;;;;;;26.04;50.10;101107.75;5126251;27;20015;-78
2023/06/20 07:44:50;;;;;;;0.10;0.10;;;;;;;26.11;50.21;101113.59;5122621;28;20044;-78
2023/06/20 07:47:16;;;;;;;0.32;0.32;;;;;;;26.09;49.71;101119.13;5121280;28;20027;-77
2023/06/20 07:49:42;;;;;;;0.70;0.68;;;;;;;26.16;50.14;101116.78;5121408;28;20057;-78
2023/06/20 07:52:09;;;;;;;0.90;0.28;;;;;;;26.19;49.50;101115.69;5121111;28;20022;-78
2023/06/20 07:54:35;;;;;;;0.50;0.50;;;;;;;26.12;49.37;101121.59;5123003;28;20089;-78
2023/06/20 07:57:01;;;;;;;0.38;0.38;;;;;;;26.23;49.75;101122.56;5120275;28;20081;-78
2023/06/20 07:59:27;;;;;;;0.13;0.13;;;;;;;26.29;49.48;101127.50;5123172;28;20027;-78
2023/06/20 08:01:53;;;;;;;0.57;0.57;;;;;;;26.36;49.20;101128.72;5124267;28;20080;-78
2023/06/20 08:04:19;;;;;;;0.98;0.98;;;;;;;26.45;49.26;101127.94;5115626;28;20447;-78
2023/06/20 08:06:45;;;;;;;2.55;1.10;;;;;;;26.50;49.47;101124.00;5121844;28;20087;-78
2023/06/20 08:09:12;;;;;;;0.10;0.10;;;;;;;26.56;49.08;101112.63;5132359;27;20214;-78
2023/06/20 08:11:38;;;;;;;0.38;0.38;;;;;;;26.63;49.03;101116.53;5117818;27;20063;-78
2023/06/20 08:14:04;;;;;;;0.10;0.10;;;;;;;26.62;48.42;101117.53;5124612;28;20057;-79
2023/06/20 08:16:30;;;;;;;0.25;0.25;;;;;;;26.71;49.18;101116.75;5123662;28;20016;-78
2023/06/20 08:18:56;;;;;;;0.32;0.32;;;;;;;26.72;49.72;101107.63;5118966;28;20113;-78
2023/06/20 08:21:22;;;;;;;0.05;0.05;;;;;;;26.84;49.27;101122.03;5124916;28;20024;-78
2023/06/20 08:23:48;;;;;;;0.13;0.13;;;;;;;26.94;48.89;101113.97;5121254;28;20035;-78
2023/06/20 08:26:14;;;;;;;0.25;0.25;;;;;;;27.05;49.02;101119.34;5126029;27;20458;-78
2023/06/20 08:28:40;;;;;;;0.43;0.43;;;;;;;27.19;49.38;101115.47;5123265;28;20023;-78
2023/06/20 08:31:07;;;;;;;0.30;0.30;;;;;;;27.29;48.58;101116.38;5124211;28;20024;-78
2023/06/20 08:33:33;;;;;;;0.40;0.40;;;;;;;27.40;48.80;101123.66;5122386;28;20120;-78
2023/06/20 08:35:59;;;;;;;0.95;0.95;;;;;;;27.51;48.14;101114.53;5122618;28;20043;-78
2023/06/20 08:38:25;;;;;;;0.82;0.82;;;;;;;27.54;47.71;101108.81;5123262;28;20047;-78
2023/06/20 08:40:51;;;;;;;0.20;0.20;;;;;;;27.62;46.81;101108.13;5124315;28;20018;-78
2023/06/20 08:43:18;;;;;;;2.10;1.35;;;;;;;27.71;47.46;101101.88;5125061;28;20031;-78
2023/06/20 08:45:44;;;;;;;0.40;0.40;;;;;;;27.77;46.89;101097.75;5123973;28;20024;-78
2023/06/20 08:48:10;;;;;;;0.10;0.10;;;;;;;27.84;46.98;101095.31;5117857;28;20082;-78
2023/06/20 08:50:37;;;;;;;0.35;0.35;;;;;;;27.90;47.62;101086.59;5122988;28;20038;-79
2023/06/20 08:53:06;;;;;;;0.30;0.30;;;;;;;27.97;47.13;101093.22;5125892;28;20023;-78
2023/06/20 08:55:34;;;;;;;0.85;0.45;;;;;;;28.09;47.14;101085.84;5125037;28;20042;-79
2023/06/20 08:58:00;;;;;;;0.00;0.00;;;;;;;28.14;45.90;101085.41;5123996;28;20034;-78
2023/06/20 09:00:27;;;;;;;0.25;0.25;;;;;;;28.22;46.80;101091.03;5133804;27;20023;-79
2023/06/20 09:02:54;;;;;;;1.00;0.32;;;;;;;28.33;47.12;101087.34;5123042;28;20030;-78
2023/06/20 09:05:21;;;;;;;0.10;0.10;;;;;;;28.36;46.18;101097.94;5121316;28;20019;-79
2023/06/20 09:07:47;;;;;;;0.30;0.30;;;;;;;28.39;45.16;101098.53;5127098;27;20016;-78
2023/06/20 09:10:18;;;;;;;0.43;0.43;;;;;;;28.54;46.84;101095.38;5124683;28;20090;-78
2023/06/20 09:15:24;;;;;;;0.65;0.65;;;;;;;28.73;45.53;101089.97;5091031;27;20242;-77
2023/06/20 09:17:51;;;;;;;0.10;0.10;;;;;;;28.86;46.14;101080.63;5088301;28;20024;-77
2023/06/20 09:20:18;;;;;;;0.52;0.52;;;;;;;28.94;46.19;101085.38;5069965;28;20594;-77
2023/06/20 09:22:44;;;;;;;0.10;0.10;;;;;;;28.99;45.71;101086.66;5069418;28;20031;-76
2023/06/20 09:25:12;;;;;;;0.15;0.15;;;;;;;29.08;45.84;101081.34;5067725;28;20131;-77
2023/06/20 09:27:43;;;;;;;0.10;0.10;;;;;;;29.17;45.44;101085.91;5066865;28;20067;-77
2023/06/20 09:30:09;;;;;;;0.00;0.00;;;;;;;29.28;45.40;101088.44;5070181;28;20048;-77
2023/06/20 09:32:37;;;;;;;0.25;0.25;;;;;;;29.39;45.27;101084.72;5076694;28;20033;-78
2023/06/20 09:35:05;;;;;;;0.10;0.10;;;;;;;29.52;44.89;101074.34;5080195;28;20039;-78
2023/06/20 09:37:47;;;;;;;0.38;0.38;;;;;;;29.69;44.15;101077.28;5079556;28;20025;-78
2023/06/20 09:40:14;;;;;;;;;;;;;;;29.86;43.74;101081.94;5078943;28;20036;-79
2023/06/20 09:42:45;;;;;;;0.00;0.00;;;;;;;29.94;43.99;101092.16;5079768;28;19919;-79
2023/06/20 09:45:13;;;;;;;0.45;0.45;;;;;;;30.02;43.88;101095.00;5076952;28;20029;-78
2023/06/20 09:47:40;;;;;;;1.45;0.65;;;;;;;30.12;43.09;101091.31;5074917;28;20020;-78
2023/06/20 09:50:15;;;;;;;1.80;1.23;;;;;;;30.17;42.89;101089.03;5078285;28;20036;-78
2023/06/20 09:53:22;;;;;;;0.17;0.17;;;;;;;30.29;42.36;101087.75;5075288;28;20033;-78
2023/06/20 09:55:50;;;;;;;0.50;0.50;;;;;;;30.32;42.21;101086.63;5083263;28;20053;-77
2023/06/20 09:58:18;;;;;;;0.98;0.55;;;;;;;30.32;42.15;101078.41;5076749;28;20025;-78
2023/06/20 10:00:45;;;;;;;0.17;0.17;;;;;;;30.40;41.71;101085.84;5075568;28;20032;-78
2023/06/20 10:03:12;;;;;;;2.20;0.70;;;;;;;30.48;41.87;101080.44;5072862;28;20405;-78
2023/06/20 10:05:39;;;;;;;0.40;0.40;;;;;;;30.56;41.88;101083.28;5073958;28;20021;-77
2023/06/20 10:08:07;;;;;;;0.52;0.45;;;;;;;30.60;41.50;101072.91;5073048;28;20035;-78
2023/06/20 10:10:33;;;;;;;0.32;0.32;;;;;;;30.68;41.69;101078.47;5073571;28;20033;-77
2023/06/20 10:13:00;;;;;;;0.10;0.10;;;;;;;30.72;41.33;101076.25;5073793;28;20029;-77
2023/06/20 10:15:26;;;;;;;0.20;0.20;;;;;;;30.85;42.09;101078.59;5090674;28;20028;-79
2023/06/20 10:17:52;;;;;;;0.82;0.82;;;;;;;30.90;41.62;101070.75;5094077;28;20027;-78
2023/06/20 10:20:37;;;;;;;0.10;0.10;;;;;;;31.01;40.69;101065.03;5091956;28;20385;-78
2023/06/20 10:23:07;;;;;;;1.20;0.60;;;;;;;31.03;41.42;101064.88;5096576;28;20016;-78
2023/06/20 10:25:34;;;;;;;0.25;0.25;;;;;;;31.06;41.26;101056.34;5089898;28;20662;-78
2023/06/20 10:28:05;;;;;;;0.10;0.10;;;;;;;31.19;41.58;101056.81;5084528;28;20103;-79
2023/06/20 10:30:57;;;;;;;0.10;0.10;;;;;;;31.35;40.33;101050.56;5082869;28;20028;-78
2023/06/20 10:33:31;;;;;;;1.05;0.77;;;;;;;31.44;39.93;101046.00;5080789;28;20043;-78
2023/06/20 10:41:26;;;;;;;0.13;0.13;;;;;;;31.55;40.05;101047.59;5137887;27;1183176;-78
2023/06/20 10:44:01;;;;;;;0.20;0.20;;;;;;;31.61;39.65;101041.47;5162114;27;20031;-78
2023/06/20 10:49:18;;;;;;;0.10;0.10;;;;;;;31.51;39.87;101027.06;5049950;28;20370;-79
2023/06/20 10:54:21;;;;;;;0.10;0.10;;;;;;;31.62;39.47;101008.44;5117803;27;20393;-78
2023/06/20 10:56:47;;;;;;;0.10;0.10;;;;;;;31.62;38.71;101016.66;5099687;28;20463;-78
2023/06/20 10:59:16;;;;;;;1.13;0.98;;;;;;;31.71;38.13;101011.25;5100391;28;20032;-79
2023/06/20 11:01:42;;;;;;;2.00;0.57;;;;;;;31.86;41.08;101006.81;5092023;28;20032;-77
2023/06/20 11:04:10;;;;;;;0.73;0.47;;;;;;;32.00;39.23;101004.47;5091880;28;20024;-77
2023/06/20 11:06:36;;;;;;;0.10;0.10;;;;;;;32.05;38.73;101002.94;5101017;28;20036;-79
2023/06/20 11:09:03;;;;;;;1.13;0.85;;;;;;;32.06;38.51;100992.84;5099785;28;20082;-78
2023/06/20 11:11:31;;;;;;;0.25;0.25;;;;;;;31.90;38.96;100993.66;5100138;28;20029;-78
2023/06/20 11:14:13;;;;;;;0.22;0.22;;;;;;;31.89;39.00;100991.94;5094247;28;20103;-76
2023/06/20 11:16:40;;;;;;;0.10;0.10;;;;;;;31.81;39.60;100984.56;5082024;28;20032;-79
2023/06/20 11:19:07;;;;;;;0.10;0.10;;;;;;;31.80;39.73;100987.47;5101178;28;20084;-78
2023/06/20 11:21:34;;;;;;;0.40;0.40;;;;;;;31.80;40.66;100984.72;5097067;28;20050;-78
2023/06/20 11:24:01;;;;;;;0.30;0.30;;;;;;;31.92;39.78;100989.72;5097410;28;20027;-77
2023/06/20 11:26:28;;;;;;;0.65;0.57;;;;;;;31.85;39.92;100988.69;5099262;28;20029;-78
2023/06/20 11:29:03;;;;;;;1.48;0.35;;;;;;;31.76;39.69;100990.53;5099843;28;20033;-78
2023/06/20 11:31:29;;;;;;;2.55;0.55;;;;;;;31.73;40.89;100988.13;5092155;28;20056;-77
2023/06/20 11:34:04;;;;;;;0.08;0.08;;;;;;;31.92;39.68;100991.63;5092284;28;20024;-79
2023/06/20 11:36:34;;;;;;;0.50;0.50;;;;;;;32.02;39.65;100986.84;5100918;28;20071;-78
2023/06/20 11:39:06;;;;;;;0.20;0.20;;;;;;;32.13;39.79;100984.78;5096063;28;20028;-78
2023/06/20 11:41:32;;;;;;;;;;;;;;;32.33;39.24;100993.59;5102163;28;20064;-79
2023/06/20 11:43:59;;;;;;;0.45;0.22;;;;;;;32.33;39.50;100997.19;5101506;28;19918;-78
2023/06/20 11:46:25;;;;;;;0.22;0.22;;;;;;;32.41;39.08;101002.69;5097286;28;20090;-78
2023/06/20 11:48:53;;;;;;;0.25;0.25;;;;;;;32.41;38.22;101005.44;5094702;28;20054;-80
2023/06/20 11:51:21;;;;;;;0.00;0.00;;;;;;;32.41;37.34;100999.06;5094904;28;20021;-80
2023/06/20 11:53:59;;;;;;;0.00;0.00;;;;;;;32.58;39.07;101009.00;5091519;28;20024;-78
2023/06/20 11:56:25;;;;;;;0.13;0.13;;;;;;;32.80;37.80;101009.38;5095332;28;20080;-80
2023/06/20 11:58:53;;;;;;;0.38;0.38;;;;;;;33.06;37.34;101016.53;5095063;28;20025;-80